Time;durP1;ratioP1;P1;durP2;ratioP2;P2;SDS_P1;SDS_P2;PMS_P1;PMS_P2;Temp;Humidity;BMP_temperature;BMP_pressure;BME280_temperature;BME280_humidity;BME280_pressure;Samples;Min_cycle;Max_cycle;Signal;HPM_P1;HPM_P2
2024/02/11 00:01:13;;;;;;;19.10;11.05;;;8.80;99.90;;;;;;4941050;28;20091;-79
2024/02/11 00:03:39;;;;;;;16.92;11.93;;;8.60;99.90;;;;;;4924866;28;20039;-79
2024/02/11 00:06:06;;;;;;;17.13;12.05;;;8.60;99.90;;;;;;4912936;28;20026;-79
2024/02/11 00:08:32;;;;;;;18.48;12.25;;;8.70;99.90;;;;;;4914042;28;20477;-79
2024/02/11 00:10:59;;;;;;;17.27;12.10;;;8.70;99.90;;;;;;4942689;28;20039;-79
2024/02/11 00:13:25;;;;;;;16.88;11.95;;;8.70;99.90;;;;;;4912259;28;20107;-79
2024/02/11 00:15:50;;;;;;;16.00;11.45;;;8.50;99.90;;;;;;4922430;28;20055;-78
2024/02/11 00:18:19;;;;;;;18.42;13.15;;;8.60;99.90;;;;;;4939031;28;20031;-81
2024/02/11 00:20:45;;;;;;;14.63;11.60;;;8.40;99.90;;;;;;4930700;28;20078;-79
2024/02/11 00:23:12;;;;;;;14.52;11.40;;;8.30;99.90;;;;;;4922582;28;20032;-79
2024/02/11 00:25:39;;;;;;;16.75;11.98;;;8.20;99.90;;;;;;4924645;28;20697;-79
2024/02/11 00:28:07;;;;;;;16.95;11.68;;;8.20;99.90;;;;;;4929060;28;20385;-79
2024/02/11 00:30:34;;;;;;;10.88;7.72;;;8.30;99.90;;;;;;4925864;28;20489;-79
2024/02/11 00:32:59;;;;;;;101.90;13.73;;;8.30;99.90;;;;;;4928943;28;20027;-79
2024/02/11 00:35:26;;;;;;;18.65;7.53;;;8.40;99.90;;;;;;4930966;28;20043;-79
2024/02/11 00:37:51;;;;;;;45.95;10.80;;;8.50;99.90;;;;;;4913428;28;20122;-79
2024/02/11 00:40:18;;;;;;;77.05;12.00;;;8.30;99.90;;;;;;4926419;28;20055;-79
2024/02/11 00:42:45;;;;;;;18.83;10.38;;;8.50;99.90;;;;;;4925827;28;20046;-79
2024/02/11 00:45:12;;;;;;;12.20;9.23;;;8.30;99.90;;;;;;4913591;28;20035;-77
2024/02/11 00:47:41;;;;;;;14.60;11.02;;;8.40;99.90;;;;;;4927303;28;20039;-77
2024/02/11 00:50:15;;;;;;;7.28;5.97;;;8.40;99.90;;;;;;4913443;28;20038;-77
2024/02/11 00:52:41;;;;;;;18.23;12.57;;;8.50;99.90;;;;;;4929784;28;20031;-78
2024/02/11 00:55:09;;;;;;;15.77;10.55;;;8.50;99.90;;;;;;4928560;28;20413;-78
2024/02/11 00:57:36;;;;;;;16.90;10.60;;;8.40;99.90;;;;;;4929439;28;20103;-76
2024/02/11 01:00:11;;;;;;;6.95;5.60;;;8.30;99.90;;;;;;4909161;28;20105;-77
2024/02/11 01:02:37;;;;;;;18.67;11.38;;;8.40;99.90;;;;;;4927718;28;20230;-79
2024/02/11 01:05:04;;;;;;;15.32;11.32;;;8.40;99.90;;;;;;4910964;28;20035;-76
2024/02/11 01:07:33;;;;;;;6.88;5.65;;;8.40;99.90;;;;;;4912515;28;20808;-77
2024/02/11 01:09:59;;;;;;;8.98;7.13;;;8.40;99.90;;;;;;4941241;28;20516;-78
2024/02/11 01:12:24;;;;;;;10.18;6.60;;;8.50;99.90;;;;;;4922700;28;20051;-77
2024/02/11 01:14:51;;;;;;;7.95;5.65;;;8.40;99.90;;;;;;4923912;28;20792;-78
2024/02/11 01:17:19;;;;;;;9.95;7.28;;;8.50;99.90;;;;;;4908478;28;20040;-78
2024/02/11 01:19:48;;;;;;;9.75;6.60;;;8.50;99.90;;;;;;4926506;28;20031;-78
2024/02/11 01:22:13;;;;;;;12.65;9.02;;;8.40;99.90;;;;;;4928050;28;20043;-78
2024/02/11 01:24:39;;;;;;;12.32;8.90;;;8.50;99.90;;;;;;4912254;28;20031;-77
2024/02/11 01:27:05;;;;;;;9.30;7.00;;;8.50;99.90;;;;;;4937014;28;20400;-77
2024/02/11 01:29:30;;;;;;;16.05;11.75;;;8.50;99.90;;;;;;4939499;28;20031;-77
2024/02/11 01:31:58;;;;;;;18.00;11.93;;;8.40;99.90;;;;;;4908583;28;20131;-77
2024/02/11 01:34:23;;;;;;;16.15;11.13;;;8.40;99.90;;;;;;4923286;28;20035;-79
2024/02/11 01:36:49;;;;;;;19.55;11.88;;;8.30;99.90;;;;;;4937552;28;20046;-79
2024/02/11 01:39:15;;;;;;;14.00;11.18;;;8.30;99.90;;;;;;4939597;28;20050;-80
2024/02/11 01:41:41;;;;;;;18.85;12.32;;;8.30;99.90;;;;;;4927175;28;20032;-79
2024/02/11 01:44:06;;;;;;;16.92;10.65;;;8.40;99.90;;;;;;4910195;28;20099;-80
2024/02/11 01:46:33;;;;;;;15.70;11.50;;;8.30;99.90;;;;;;4941573;28;20066;-79
2024/02/11 01:49:03;;;;;;;13.93;10.50;;;8.30;99.90;;;;;;4923792;28;20031;-80
2024/02/11 01:51:32;;;;;;;17.13;11.63;;;8.30;99.90;;;;;;4940669;28;20126;-79
2024/02/11 01:53:59;;;;;;;17.60;11.13;;;8.30;99.90;;;;;;4922864;28;20421;-80
2024/02/11 01:56:24;;;;;;;7.93;6.93;;;8.40;99.90;;;;;;4929850;28;20035;-80
2024/02/11 01:58:50;;;;;;;13.90;11.38;;;8.40;99.90;;;;;;4910656;28;20055;-78
2024/02/11 02:01:17;;;;;;;9.50;6.25;;;8.40;99.90;;;;;;4913423;28;20031;-77
2024/02/11 02:03:44;;;;;;;15.73;11.15;;;8.40;99.90;;;;;;4924968;28;20024;-78
2024/02/11 02:06:11;;;;;;;13.05;10.38;;;8.40;99.90;;;;;;4940115;28;20121;-78
2024/02/11 02:08:37;;;;;;;9.23;5.75;;;8.40;99.90;;;;;;4926684;28;20119;-77
2024/02/11 02:11:03;;;;;;;14.10;10.82;;;8.40;99.90;;;;;;4922627;28;20106;-77
2024/02/11 02:13:29;;;;;;;14.70;11.13;;;8.40;99.90;;;;;;4912149;28;20557;-77
2024/02/11 02:15:54;;;;;;;13.93;10.38;;;8.30;99.90;;;;;;4947425;28;20118;-77
2024/02/11 02:18:20;;;;;;;12.40;10.60;;;8.30;99.90;;;;;;4917979;29;20049;-77
2024/02/11 02:20:48;;;;;;;6.55;5.40;;;8.30;99.90;;;;;;4927303;28;20094;-79
2024/02/11 02:23:14;;;;;;;16.50;11.20;;;8.30;99.90;;;;;;4915810;28;20461;-79
2024/02/11 02:25:39;;;;;;;7.53;5.30;;;8.30;99.90;;;;;;4932363;28;20027;-80
2024/02/11 02:28:05;;;;;;;15.52;10.05;;;8.30;99.90;;;;;;4914846;28;20057;-80
2024/02/11 02:30:33;;;;;;;14.65;11.15;;;8.30;99.90;;;;;;4929011;28;20043;-79
2024/02/11 02:32:59;;;;;;;14.77;11.25;;;8.40;99.90;;;;;;4915838;28;20036;-79
2024/02/11 02:35:25;;;;;;;12.75;9.85;;;8.30;99.90;;;;;;4929921;28;20039;-79
2024/02/11 02:37:52;;;;;;;11.25;9.60;;;8.20;99.90;;;;;;4929180;29;20511;-79
2024/02/11 02:40:19;;;;;;;11.30;9.52;;;8.20;99.90;;;;;;4944162;28;20035;-80
2024/02/11 02:42:44;;;;;;;13.80;10.07;;;8.20;99.90;;;;;;4944074;28;20050;-78
2024/02/11 02:45:10;;;;;;;10.18;8.38;;;8.20;99.90;;;;;;4942162;28;20043;-79
2024/02/11 02:47:35;;;;;;;16.63;10.23;;;8.20;99.90;;;;;;4914920;28;20067;-80
2024/02/11 02:50:02;;;;;;;6.60;5.53;;;8.20;99.90;;;;;;4943358;28;20035;-79
2024/02/11 02:52:28;;;;;;;8.73;6.25;;;8.30;99.90;;;;;;4925638;28;20504;-79
2024/02/11 02:54:55;;;;;;;8.45;7.03;;;8.30;99.90;;;;;;4926846;28;20034;-79
2024/02/11 02:57:20;;;;;;;8.68;7.20;;;8.30;99.90;;;;;;4944195;28;20580;-80
2024/02/11 02:59:46;;;;;;;14.18;9.77;;;8.30;99.90;;;;;;4931507;28;20042;-80
2024/02/11 03:02:12;;;;;;;7.40;5.43;;;8.20;99.90;;;;;;4943484;28;20036;-80
2024/02/11 03:04:38;;;;;;;7.53;6.53;;;8.30;99.90;;;;;;4926543;28;20051;-80
2024/02/11 03:07:06;;;;;;;11.80;8.30;;;8.30;99.90;;;;;;4910820;28;20028;-80
2024/02/11 03:09:33;;;;;;;8.70;6.82;;;8.30;99.90;;;;;;4916011;28;20066;-79
2024/02/11 03:11:59;;;;;;;9.95;6.05;;;8.40;99.90;;;;;;4926937;28;20806;-81
2024/02/11 03:14:24;;;;;;;8.25;6.75;;;8.40;99.90;;;;;;4926700;28;20038;-80
2024/02/11 03:16:50;;;;;;;8.35;6.25;;;8.50;99.90;;;;;;4928959;28;20051;-80
2024/02/11 03:19:15;;;;;;;9.07;7.38;;;8.50;99.90;;;;;;4930582;28;20117;-80
2024/02/11 03:21:48;;;;;;;11.40;7.07;;;8.50;99.90;;;;;;4942988;28;20031;-80
2024/02/11 03:24:14;;;;;;;11.82;7.97;;;8.60;99.90;;;;;;4914276;28;20044;-79
2024/02/11 03:26:40;;;;;;;8.27;5.95;;;8.70;99.90;;;;;;4941812;28;20552;-81
2024/02/11 03:29:07;;;;;;;9.98;5.93;;;8.50;99.90;;;;;;4912051;28;20035;-80
2024/02/11 03:31:34;;;;;;;9.48;7.15;;;8.50;99.90;;;;;;4931697;28;20038;-80
2024/02/11 03:34:00;;;;;;;9.82;6.85;;;8.50;99.90;;;;;;4914837;28;20024;-80
2024/02/11 03:36:26;;;;;;;8.45;6.38;;;8.40;99.90;;;;;;4941663;28;20028;-79
2024/02/11 03:38:52;;;;;;;8.30;6.32;;;8.40;99.90;;;;;;4916673;28;20110;-80
2024/02/11 03:41:18;;;;;;;6.40;4.85;;;8.40;99.90;;;;;;4926403;28;20111;-81
2024/02/11 03:43:43;;;;;;;8.65;6.22;;;8.40;99.90;;;;;;4921999;28;20529;-80
2024/02/11 03:46:09;;;;;;;6.15;5.18;;;8.50;99.90;;;;;;4921091;28;20032;-80
2024/02/11 03:48:34;;;;;;;9.90;5.20;;;8.60;99.90;;;;;;4914850;28;20073;-80
2024/02/11 03:51:00;;;;;;;7.93;4.93;;;8.60;99.90;;;;;;4914665;28;20033;-80
2024/02/11 03:53:26;;;;;;;5.72;4.65;;;8.60;99.90;;;;;;4911851;28;20042;-79
2024/02/11 03:55:52;;;;;;;8.88;5.90;;;8.60;99.90;;;;;;4914466;28;20284;-80
2024/02/11 03:58:18;;;;;;;6.00;4.75;;;8.60;99.90;;;;;;4925190;28;20590;-80
2024/02/11 04:00:44;;;;;;;5.13;4.20;;;8.60;99.90;;;;;;4924802;28;20035;-80
2024/02/11 04:03:14;;;;;;;7.38;4.38;;;8.70;99.90;;;;;;4926811;28;20040;-81
2024/02/11 04:05:43;;;;;;;5.43;4.30;;;8.70;99.90;;;;;;4911367;28;20526;-80
2024/02/11 04:08:11;;;;;;;5.40;4.32;;;8.80;99.90;;;;;;4912221;28;20047;-81
2024/02/11 04:10:39;;;;;;;5.72;4.00;;;8.70;99.90;;;;;;4945428;28;20031;-82
2024/02/11 04:13:05;;;;;;;5.85;4.82;;;8.70;99.90;;;;;;4915230;28;20036;-81
2024/02/11 04:15:31;;;;;;;7.00;4.10;;;8.70;99.90;;;;;;4926991;28;20039;-81
2024/02/11 04:18:07;;;;;;;9.80;5.40;;;8.70;99.90;;;;;;4912997;28;20043;-81
2024/02/11 04:20:32;;;;;;;7.18;4.72;;;8.60;99.90;;;;;;4926601;28;20039;-80
2024/02/11 04:22:58;;;;;;;4.97;3.75;;;8.60;99.90;;;;;;4914930;28;20044;-81
2024/02/11 04:25:29;;;;;;;11.25;5.97;;;8.60;99.90;;;;;;4913144;28;20040;-81
2024/02/11 04:27:55;;;;;;;7.38;3.95;;;8.60;99.90;;;;;;4926836;28;20386;-81
2024/02/11 04:30:20;;;;;;;5.32;4.38;;;8.70;99.90;;;;;;4910970;28;20035;-81
2024/02/11 04:32:47;;;;;;;6.30;4.35;;;8.70;99.90;;;;;;4927427;28;20044;-81
2024/02/11 04:35:14;;;;;;;4.85;3.65;;;8.70;99.90;;;;;;4943313;28;20038;-81
2024/02/11 04:37:46;;;;;;;6.72;4.95;;;8.70;99.90;;;;;;4912406;28;20035;-81
2024/02/11 04:40:15;;;;;;;5.40;4.18;;;8.80;99.90;;;;;;4913514;28;20050;-80
2024/02/11 04:42:45;;;;;;;6.25;4.35;;;8.70;99.90;;;;;;4926671;28;20036;-80
2024/02/11 04:45:17;;;;;;;4.40;3.63;;;8.90;99.90;;;;;;4929503;28;20040;-80
2024/02/11 04:47:46;;;;;;;5.35;3.53;;;8.80;99.90;;;;;;4912589;28;20039;-79
2024/02/11 04:50:15;;;;;;;8.45;4.88;;;8.80;99.90;;;;;;4926235;28;20446;-80
2024/02/11 04:52:48;;;;;;;6.93;5.25;;;8.80;99.90;;;;;;4943390;28;20059;-80
2024/02/11 04:55:14;;;;;;;9.35;5.60;;;8.80;99.90;;;;;;4930281;28;20035;-79
2024/02/11 04:57:40;;;;;;;6.32;3.80;;;8.70;99.90;;;;;;4943363;28;20504;-80
2024/02/11 05:00:23;;;;;;;5.40;3.63;;;8.70;99.90;;;;;;4927375;28;20178;-80
2024/02/11 05:02:50;;;;;;;8.25;4.75;;;8.80;99.90;;;;;;4931703;28;20583;-81
2024/02/11 05:05:18;;;;;;;6.20;4.32;;;8.80;99.90;;;;;;4926573;28;20490;-80
2024/02/11 05:07:44;;;;;;;3.75;3.13;;;8.80;99.90;;;;;;4928174;28;20401;-80
2024/02/11 05:10:11;;;;;;;7.53;5.35;;;8.80;99.90;;;;;;4913980;28;20035;-80
2024/02/11 05:12:37;;;;;;;4.82;3.85;;;8.80;99.90;;;;;;4912204;28;20031;-79
2024/02/11 05:15:03;;;;;;;5.28;3.78;;;8.80;99.90;;;;;;4929312;28;20031;-80
2024/02/11 05:17:29;;;;;;;6.25;4.20;;;8.80;99.90;;;;;;4916621;28;20054;-80
2024/02/11 05:19:55;;;;;;;7.93;4.30;;;8.80;99.90;;;;;;4912212;28;20035;-80
2024/02/11 05:22:22;;;;;;;7.82;4.72;;;8.80;99.90;;;;;;4924939;28;20032;-79
2024/02/11 05:24:48;;;;;;;7.20;4.25;;;8.90;99.90;;;;;;4910679;28;20581;-80
2024/02/11 05:27:13;;;;;;;8.70;5.50;;;8.90;99.90;;;;;;4912352;28;20036;-80
2024/02/11 05:29:39;;;;;;;8.18;4.10;;;9.00;99.90;;;;;;4924600;28;20035;-80
2024/02/11 05:32:08;;;;;;;7.25;4.75;;;8.90;99.90;;;;;;4925593;28;20501;-80
2024/02/11 05:34:38;;;;;;;8.40;4.50;;;9.00;99.90;;;;;;4923558;28;20047;-79
2024/02/11 05:37:07;;;;;;;6.50;3.92;;;9.00;99.90;;;;;;4928659;28;20031;-82
2024/02/11 05:39:35;;;;;;;4.88;4.13;;;9.00;99.90;;;;;;4921848;28;20083;-82
2024/02/11 05:42:00;;;;;;;5.93;4.43;;;9.00;99.90;;;;;;4909193;28;20062;-80
2024/02/11 05:44:30;;;;;;;7.65;4.55;;;9.00;99.90;;;;;;4925444;28;20035;-80
2024/02/11 05:46:55;;;;;;;7.55;4.85;;;9.00;99.90;;;;;;4941901;28;20511;-81
2024/02/11 05:49:21;;;;;;;6.60;4.63;;;9.20;99.90;;;;;;4924926;28;20035;-80
2024/02/11 05:51:48;;;;;;;8.88;5.45;;;9.00;99.90;;;;;;4922481;28;20489;-80
2024/02/11 05:54:16;;;;;;;6.90;5.22;;;9.10;99.90;;;;;;4913901;28;20038;-80
2024/02/11 05:56:42;;;;;;;7.93;4.95;;;9.10;99.90;;;;;;4944409;28;20039;-80
2024/02/11 05:59:08;;;;;;;4.97;3.63;;;9.10;99.90;;;;;;4926204;28;20039;-81
2024/02/11 06:01:34;;;;;;;5.60;4.15;;;9.10;99.90;;;;;;4929422;28;20032;-80
2024/02/11 06:04:00;;;;;;;4.65;3.33;;;9.20;99.90;;;;;;4914559;28;20027;-80
2024/02/11 06:06:25;;;;;;;8.13;3.63;;;9.20;99.90;;;;;;4911586;28;20031;-80
2024/02/11 06:08:51;;;;;;;4.18;2.50;;;9.20;99.90;;;;;;4912643;28;20591;-80
2024/02/11 06:11:16;;;;;;;4.13;1.75;;;9.30;99.90;;;;;;4942269;28;20047;-81
2024/02/11 06:13:42;;;;;;;3.72;3.05;;;9.30;99.90;;;;;;4909832;28;20042;-80
2024/02/11 06:16:07;;;;;;;2.17;1.40;;;9.30;99.90;;;;;;4942256;28;20151;-80
2024/02/11 06:18:33;;;;;;;5.13;3.72;;;9.40;99.90;;;;;;4925925;28;20040;-80
2024/02/11 06:20:59;;;;;;;4.03;2.35;;;9.40;99.90;;;;;;4927790;28;20066;-80
2024/02/11 06:23:25;;;;;;;3.50;2.28;;;9.40;99.90;;;;;;4925151;28;20097;-80
2024/02/11 06:25:52;;;;;;;5.35;4.15;;;9.50;99.90;;;;;;4909833;28;20031;-79
2024/02/11 06:28:19;;;;;;;4.05;2.88;;;9.50;99.90;;;;;;4926264;28;20592;-80
2024/02/11 06:30:45;;;;;;;3.05;2.20;;;9.50;99.90;;;;;;4924330;28;20067;-77
2024/02/11 06:33:11;;;;;;;4.43;2.40;;;9.40;99.90;;;;;;4906534;28;20968;-76
2024/02/11 06:35:36;;;;;;;5.82;2.40;;;9.50;99.90;;;;;;4910333;28;20044;-77
2024/02/11 06:38:04;;;;;;;3.60;1.55;;;9.50;99.90;;;;;;4937725;28;20431;-79
2024/02/11 06:40:30;;;;;;;3.90;1.77;;;9.50;99.90;;;;;;4926929;28;20500;-79
2024/02/11 06:42:59;;;;;;;0.90;0.85;;;9.40;99.90;;;;;;4912709;28;20050;-78
2024/02/11 06:45:25;;;;;;;1.27;1.10;;;9.40;99.90;;;;;;4911127;28;20461;-78
2024/02/11 06:47:52;;;;;;;2.95;0.90;;;9.30;99.90;;;;;;4922767;28;20087;-79
2024/02/11 06:50:20;;;;;;;1.77;1.20;;;9.20;99.90;;;;;;4925907;28;20511;-78
2024/02/11 06:52:48;;;;;;;1.75;1.00;;;9.20;99.90;;;;;;4925709;28;20126;-77
2024/02/11 06:55:16;;;;;;;0.90;0.85;;;9.20;99.90;;;;;;4924299;28;20729;-78
2024/02/11 06:57:42;;;;;;;1.38;1.05;;;9.10;99.90;;;;;;4938464;28;20050;-79
2024/02/11 07:00:09;;;;;;;4.13;2.25;;;9.00;99.90;;;;;;4911633;28;20046;-79
2024/02/11 07:02:36;;;;;;;1.77;1.38;;;9.00;99.90;;;;;;4940715;28;20032;-79
2024/02/11 07:05:02;;;;;;;5.18;2.55;;;9.00;99.90;;;;;;4915865;28;20039;-78
2024/02/11 07:07:28;;;;;;;6.07;2.13;;;9.00;99.90;;;;;;4914688;28;20039;-78
2024/02/11 07:09:54;;;;;;;5.47;1.90;;;8.90;99.90;;;;;;4914271;29;20036;-78
2024/02/11 07:12:19;;;;;;;2.15;1.65;;;8.80;99.90;;;;;;4943258;28;20035;-78
2024/02/11 07:14:45;;;;;;;3.35;2.13;;;8.80;99.90;;;;;;4926359;28;20036;-79
2024/02/11 07:17:11;;;;;;;7.93;2.88;;;8.80;99.90;;;;;;4942443;28;20098;-79
2024/02/11 07:19:37;;;;;;;4.20;2.03;;;8.70;99.90;;;;;;4942915;28;20485;-78
2024/02/11 07:22:03;;;;;;;9.07;2.47;;;8.70;99.90;;;;;;4929246;28;20042;-78
2024/02/11 07:24:30;;;;;;;5.10;2.60;;;8.70;99.90;;;;;;4928922;28;21326;-78
2024/02/11 07:26:55;;;;;;;7.43;2.65;;;8.70;99.90;;;;;;4924176;28;20031;-79
2024/02/11 07:29:21;;;;;;;8.10;2.88;;;8.70;99.90;;;;;;4920212;28;20527;-79
2024/02/11 07:31:48;;;;;;;9.68;3.00;;;8.70;99.90;;;;;;4928714;28;20039;-78
2024/02/11 07:34:14;;;;;;;8.18;2.63;;;8.70;99.90;;;;;;4920276;28;20501;-79
2024/02/11 07:36:40;;;;;;;9.00;2.30;;;8.60;99.90;;;;;;4928080;28;20034;-78
2024/02/11 07:39:06;;;;;;;4.85;1.60;;;8.60;99.90;;;;;;4895966;28;20023;-79
2024/02/11 07:41:31;;;;;;;9.70;2.08;;;8.60;99.90;;;;;;4906767;28;20304;-78
2024/02/11 07:43:57;;;;;;;5.80;1.52;;;8.60;99.90;;;;;;4917351;28;20695;-79
2024/02/11 07:46:22;;;;;;;6.85;1.52;;;8.60;99.90;;;;;;4898630;28;20047;-78
2024/02/11 07:48:48;;;;;;;3.47;1.90;;;8.60;99.90;;;;;;4890890;28;20032;-79
2024/02/11 07:51:14;;;;;;;6.53;1.90;;;8.60;99.90;;;;;;4924800;28;20448;-78
2024/02/11 07:53:40;;;;;;;5.85;1.25;;;8.50;99.90;;;;;;4914496;28;20039;-79
2024/02/11 07:56:06;;;;;;;4.05;1.13;;;8.50;99.90;;;;;;4896850;28;20511;-80
2024/02/11 07:58:32;;;;;;;4.43;2.30;;;8.50;99.90;;;;;;4914092;28;20031;-78
2024/02/11 08:00:59;;;;;;;5.38;2.22;;;8.50;99.90;;;;;;4927008;28;20292;-78
2024/02/11 08:03:25;;;;;;;9.18;2.78;;;8.60;99.90;;;;;;4912122;28;20035;-78
2024/02/11 08:05:51;;;;;;;9.48;1.40;;;8.50;99.90;;;;;;4910229;28;20090;-78
2024/02/11 08:08:17;;;;;;;6.88;1.65;;;8.50;99.90;;;;;;4925346;28;20035;-78
2024/02/11 08:10:42;;;;;;;3.55;1.15;;;8.50;99.90;;;;;;4921925;28;20062;-79
2024/02/11 08:13:08;;;;;;;6.32;3.13;;;8.40;99.90;;;;;;4928132;28;20039;-79
2024/02/11 08:15:35;;;;;;;7.40;2.90;;;8.40;99.90;;;;;;4941164;28;20035;-79
2024/02/11 08:18:04;;;;;;;5.35;1.98;;;8.50;99.90;;;;;;4911126;28;20480;-79
2024/02/11 08:20:31;;;;;;;4.93;1.65;;;8.50;99.90;;;;;;4921020;28;20525;-78
2024/02/11 08:22:57;;;;;;;8.32;1.85;;;8.40;99.90;;;;;;4927063;28;20114;-79
2024/02/11 08:25:22;;;;;;;11.38;2.45;;;8.40;99.90;;;;;;4927954;28;20569;-80
2024/02/11 08:27:48;;;;;;;6.78;2.08;;;8.40;99.90;;;;;;4924846;28;21346;-79
2024/02/11 08:30:14;;;;;;;9.18;2.85;;;8.40;99.90;;;;;;4904527;28;20050;-79
2024/02/11 08:32:42;;;;;;;12.48;2.58;;;8.40;99.90;;;;;;4924615;29;20120;-80
2024/02/11 08:35:08;;;;;;;13.05;4.85;;;8.40;99.90;;;;;;4911849;28;20451;-78
2024/02/11 08:37:34;;;;;;;10.40;2.60;;;8.40;99.90;;;;;;4911251;28;20487;-79
2024/02/11 08:40:00;;;;;;;1.73;1.08;;;8.50;99.90;;;;;;4921455;28;20035;-77
2024/02/11 08:42:27;;;;;;;13.88;3.30;;;8.40;99.90;;;;;;4910608;28;20039;-78
2024/02/11 08:44:54;;;;;;;16.73;1.98;;;8.50;99.90;;;;;;4911968;28;20118;-78
2024/02/11 08:47:20;;;;;;;7.90;2.60;;;8.50;99.90;;;;;;4926352;28;20502;-79
2024/02/11 08:49:46;;;;;;;9.05;2.92;;;8.50;99.90;;;;;;4922191;28;20030;-78
2024/02/11 08:52:12;;;;;;;10.07;2.92;;;8.40;99.90;;;;;;4924688;28;20042;-78
2024/02/11 08:54:38;;;;;;;9.05;3.05;;;8.50;99.90;;;;;;4928972;28;20493;-77
2024/02/11 08:57:04;;;;;;;8.52;2.28;;;8.50;99.90;;;;;;4910659;28;20039;-77
2024/02/11 08:59:30;;;;;;;10.35;2.70;;;8.50;99.90;;;;;;4908260;28;20082;-77
2024/02/11 09:01:55;;;;;;;9.20;3.40;;;8.50;99.90;;;;;;4904585;28;20418;-79
2024/02/11 09:04:24;;;;;;;7.65;2.90;;;8.60;99.90;;;;;;4907176;28;20027;-80
2024/02/11 09:06:52;;;;;;;6.30;2.88;;;8.50;99.90;;;;;;4921855;28;20497;-80
2024/02/11 09:09:25;;;;;;;11.45;2.88;;;8.60;99.90;;;;;;4913946;28;20043;-79
2024/02/11 09:11:55;;;;;;;4.35;1.42;;;8.60;99.90;;;;;;4923130;28;20035;-79
2024/02/11 09:14:21;;;;;;;9.20;2.75;;;8.60;99.90;;;;;;4909242;28;20575;-78
2024/02/11 09:16:47;;;;;;;13.23;3.63;;;8.70;99.90;;;;;;4910759;28;20087;-80
2024/02/11 09:19:13;;;;;;;9.82;3.50;;;8.70;99.90;;;;;;4926701;28;20139;-79
2024/02/11 09:21:39;;;;;;;12.10;3.47;;;8.70;99.90;;;;;;4924166;28;20461;-79
2024/02/11 09:24:05;;;;;;;7.18;1.55;;;8.70;99.90;;;;;;4907481;28;20035;-78
2024/02/11 09:26:31;;;;;;;11.88;4.45;;;8.70;99.90;;;;;;4908988;28;20029;-78
2024/02/11 09:28:57;;;;;;;4.25;1.52;;;8.80;99.90;;;;;;4938487;28;20039;-79
2024/02/11 09:31:22;;;;;;;8.35;3.30;;;8.70;99.90;;;;;;4921392;28;20023;-80
2024/02/11 09:33:48;;;;;;;6.57;2.97;;;8.80;99.90;;;;;;4918154;28;20032;-79
2024/02/11 09:36:13;;;;;;;8.70;3.35;;;8.80;99.90;;;;;;4907934;28;20043;-80
2024/02/11 09:38:39;;;;;;;7.47;3.15;;;8.90;99.90;;;;;;4911202;28;20049;-79
2024/02/11 09:41:09;;;;;;;12.48;4.38;;;8.80;99.90;;;;;;4935428;28;20162;-80
2024/02/11 09:43:38;;;;;;;5.47;3.00;;;8.90;99.90;;;;;;4924947;28;20038;-79
2024/02/11 09:46:03;;;;;;;8.13;3.60;;;8.90;99.90;;;;;;4926681;28;20401;-79
2024/02/11 09:48:29;;;;;;;11.55;3.70;;;8.80;99.90;;;;;;4923058;28;20046;-79
2024/02/11 09:50:55;;;;;;;8.77;4.28;;;8.90;99.90;;;;;;4922222;28;20156;-78
2024/02/11 09:53:20;;;;;;;13.52;4.63;;;8.90;99.90;;;;;;4920089;28;20032;-79
2024/02/11 09:55:46;;;;;;;7.93;2.60;;;9.00;99.90;;;;;;4912959;28;20464;-78
2024/02/11 09:58:12;;;;;;;8.23;3.40;;;9.00;99.90;;;;;;4931288;28;20070;-79
2024/02/11 10:00:38;;;;;;;10.30;4.38;;;9.00;99.90;;;;;;4928099;28;20042;-79
2024/02/11 10:03:05;;;;;;;10.55;4.25;;;9.00;99.90;;;;;;4921809;28;20035;-77
2024/02/11 10:05:31;;;;;;;5.60;3.53;;;9.00;99.90;;;;;;4907552;28;20493;-78
2024/02/11 10:07:58;;;;;;;8.38;3.55;;;9.00;99.90;;;;;;4904983;28;20032;-78
2024/02/11 10:10:24;;;;;;;10.82;4.28;;;9.00;99.90;;;;;;4908943;28;20097;-79
2024/02/11 10:12:51;;;;;;;11.43;4.85;;;9.00;99.90;;;;;;4927843;28;20600;-79
2024/02/11 10:15:18;;;;;;;6.50;4.15;;;9.00;99.90;;;;;;4922718;28;20143;-79
2024/02/11 10:17:44;;;;;;;13.32;3.47;;;9.00;99.90;;;;;;4911309;29;20039;-78
2024/02/11 10:20:10;;;;;;;5.80;2.88;;;9.10;99.90;;;;;;4904471;28;20516;-78
2024/02/11 10:22:38;;;;;;;8.40;3.42;;;9.00;99.90;;;;;;4939027;28;20123;-77
2024/02/11 10:25:09;;;;;;;5.47;3.05;;;9.00;99.90;;;;;;4937156;28;20098;-78
2024/02/11 10:27:35;;;;;;;8.00;4.05;;;9.10;99.90;;;;;;4911689;28;20038;-78
2024/02/11 10:30:01;;;;;;;6.35;4.00;;;9.10;99.90;;;;;;4908987;28;20465;-77
2024/02/11 10:32:30;;;;;;;9.30;3.88;;;9.10;99.90;;;;;;4921709;28;20062;-77
2024/02/11 10:35:01;;;;;;;8.18;4.60;;;9.10;99.90;;;;;;4927406;28;20501;-78
2024/02/11 10:37:27;;;;;;;15.32;4.82;;;9.20;99.90;;;;;;4929449;28;20047;-77
2024/02/11 10:39:53;;;;;;;10.98;5.03;;;9.20;99.90;;;;;;4915404;28;20370;-79
2024/02/11 10:42:20;;;;;;;7.10;3.53;;;9.30;99.90;;;;;;4928079;28;20484;-78
2024/02/11 10:44:48;;;;;;;11.25;4.15;;;9.40;99.90;;;;;;4926640;28;20062;-78
2024/02/11 10:47:14;;;;;;;11.10;4.85;;;9.50;99.90;;;;;;4909867;28;20409;-76
2024/02/11 10:49:40;;;;;;;10.10;4.32;;;9.50;99.90;;;;;;4930988;28;20424;-78
2024/02/11 10:52:12;;;;;;;8.38;4.03;;;9.60;99.90;;;;;;4926589;28;20040;-78
2024/02/11 10:54:41;;;;;;;11.63;3.58;;;9.60;99.90;;;;;;4928066;28;20039;-77
2024/02/11 10:57:19;;;;;;;8.00;4.72;;;9.60;99.90;;;;;;4939710;28;20046;-78
2024/02/11 10:59:57;;;;;;;11.63;4.40;;;9.70;99.90;;;;;;4925935;28;20027;-78
2024/02/11 11:02:22;;;;;;;8.05;3.10;;;9.70;99.90;;;;;;4938576;28;20440;-78
2024/02/11 11:04:48;;;;;;;9.45;4.85;;;9.80;99.90;;;;;;4929430;28;20055;-78
2024/02/11 11:07:15;;;;;;;10.70;3.90;;;9.80;99.90;;;;;;4912966;28;20111;-78
2024/02/11 11:09:40;;;;;;;6.60;3.65;;;9.80;99.90;;;;;;4930828;28;20083;-78
2024/02/11 11:12:07;;;;;;;8.70;2.85;;;9.90;99.90;;;;;;4910476;28;20028;-79
2024/02/11 11:14:33;;;;;;;6.85;3.00;;;10.00;99.90;;;;;;4942276;28;20024;-78
2024/02/11 11:17:03;;;;;;;11.52;3.45;;;10.10;99.90;;;;;;4913796;29;20032;-79
2024/02/11 11:19:31;;;;;;;9.27;3.30;;;10.10;99.90;;;;;;4926454;28;20023;-78
2024/02/11 11:22:00;;;;;;;8.82;3.53;;;10.30;99.90;;;;;;4926519;28;20098;-78
2024/02/11 11:24:26;;;;;;;8.15;3.40;;;10.30;99.90;;;;;;4925391;28;20401;-78
2024/02/11 11:26:52;;;;;;;11.35;3.00;;;10.40;99.90;;;;;;4929009;28;20027;-78
2024/02/11 11:29:19;;;;;;;8.18;3.95;;;10.40;99.90;;;;;;4909448;28;20603;-77
2024/02/11 11:31:47;;;;;;;6.18;2.75;;;10.50;99.90;;;;;;4926386;28;20430;-77
2024/02/11 11:34:13;;;;;;;9.63;3.38;;;10.50;99.90;;;;;;4928903;28;20371;-77
2024/02/11 11:36:38;;;;;;;7.35;3.10;;;10.60;99.90;;;;;;4928436;28;20035;-79
2024/02/11 11:39:06;;;;;;;7.60;3.53;;;10.90;99.90;;;;;;4944475;28;20039;-78
2024/02/11 11:41:33;;;;;;;3.35;1.33;;;10.90;99.90;;;;;;4926348;28;20437;-79
2024/02/11 11:44:02;;;;;;;7.53;2.72;;;10.90;99.90;;;;;;4914764;28;20032;-78
2024/02/11 11:46:28;;;;;;;15.80;3.03;;;10.90;99.90;;;;;;4926954;28;20047;-84
2024/02/11 11:48:56;;;;;;;5.85;2.67;;;10.90;99.90;;;;;;4928276;28;20512;-80
2024/02/11 11:51:23;;;;;;;6.82;3.25;;;10.90;99.90;;;;;;4940754;28;20424;-80
2024/02/11 11:53:49;;;;;;;5.40;2.83;;;11.00;99.90;;;;;;4925238;28;20039;-80
2024/02/11 11:56:16;;;;;;;12.38;3.00;;;11.10;99.90;;;;;;4913187;28;20091;-82
2024/02/11 11:58:43;;;;;;;9.60;3.60;;;11.20;99.90;;;;;;4911706;28;20044;-82
2024/02/11 12:01:08;;;;;;;7.28;3.83;;;11.30;99.90;;;;;;4941093;28;20036;-81
2024/02/11 12:03:35;;;;;;;6.22;2.20;;;11.20;99.90;;;;;;4928314;28;20039;-81
2024/02/11 12:06:00;;;;;;;9.02;3.10;;;11.30;99.90;;;;;;4926842;28;20027;-81
2024/02/11 12:08:27;;;;;;;7.43;3.53;;;11.50;99.90;;;;;;4925573;28;20035;-81
2024/02/11 12:10:56;;;;;;;6.78;3.53;;;11.50;99.90;;;;;;4924270;28;20107;-80
2024/02/11 12:13:23;;;;;;;9.32;3.15;;;11.60;99.90;;;;;;4926210;28;20125;-81
2024/02/11 12:15:48;;;;;;;5.53;2.53;;;11.60;99.90;;;;;;4909804;28;20035;-81
2024/02/11 12:18:17;;;;;;;7.35;3.13;;;11.90;99.90;;;;;;4923853;28;20501;-82
2024/02/11 12:20:43;;;;;;;8.65;2.33;;;11.90;99.90;;;;;;4926382;28;20032;-82
2024/02/11 12:23:10;;;;;;;8.25;2.60;;;11.90;99.90;;;;;;4911858;29;20424;-81
2024/02/11 12:25:38;;;;;;;5.07;2.65;;;11.60;99.90;;;;;;4922360;28;20031;-81
2024/02/11 12:28:06;;;;;;;10.02;2.70;;;11.50;99.90;;;;;;4912706;28;20028;-81
2024/02/11 12:30:32;;;;;;;7.80;3.00;;;11.80;99.90;;;;;;4928472;28;20037;-82
2024/02/11 12:32:57;;;;;;;8.10;2.72;;;11.80;99.90;;;;;;4936605;28;20266;-79
2024/02/11 12:35:29;;;;;;;3.47;2.13;;;11.80;99.90;;;;;;4928459;28;20028;-79
2024/02/11 12:37:56;;;;;;;10.20;3.05;;;11.70;99.90;;;;;;4911634;28;20035;-80
2024/02/11 12:40:25;;;;;;;7.38;3.10;;;11.60;99.90;;;;;;4929371;28;20372;-80
2024/02/11 12:42:57;;;;;;;8.15;3.05;;;12.00;99.90;;;;;;4937143;28;20063;-80
2024/02/11 12:45:23;;;;;;;8.85;3.78;;;12.10;99.90;;;;;;4925724;28;20122;-79
2024/02/11 12:47:48;;;;;;;10.38;3.33;;;12.10;99.90;;;;;;4925394;28;20114;-79